Schedule Details


Flight Number: CTN464
Departure: Franjo Tudman (LDZA) at 17:40
Arrival: Zurich (LSZH) at 19:20
Route: PODET DCT KLAGY DCT ERKIR L608 KPT L856 NEGRA

Weather Information
LDZA 191100Z VRB02KT CAVOK 10/01 Q1020 NOSIG
LSZH 191050Z 25014KT 8000 -SHRA FEW010 SCT013 BKN020 04/02 Q1024 TEMPO 3000 SHRA
Schedule Frequency

Route Map